< < Back
Terminal Aerodrome Forecast


Current Version              Previous Versions:   1  2  3  4  5  6  7  8  9  

Terminal Aerodrome Forecast

934
FTUS42 KCAE 280800 AAA
TAFCAE
TAF AMD
KCAE 280835Z 2809/2906 25008KT P6SM SCT080 BKN200
     FM281500 28015G25KT P6SM SCT040
     FM290000 30012KT P6SM SCT250
     FM290300 31005KT P6SM SKC=



Latest METAR

048
SAUS80 KWBC 281200 CCA
MTRCAE
METAR KCAE 281156Z 25008KT 9SM BKN130 BKN220 28/22 A2984 RMK AO2 SLP101
T02830222 10294 20278 53002


USA.gov is the U.S. government's official web portal to all federal, state and local government web resources and services.